Time;durP1;ratioP1;P1;durP2;ratioP2;P2;SDS_P1;SDS_P2;PMS_P1;PMS_P2;Temp;Humidity;BMP_temperature;BMP_pressure;BME280_temperature;BME280_humidity;BME280_pressure;Samples;Min_cycle;Max_cycle;Signal;HPM_P1;HPM_P2
2022/04/11 00:00:11;;;;;;;;;;;;;;;17.39;48.29;99267.66;2079835;28;19925;-49
2022/04/11 00:01:11;;;;;;;;;;;;;;;17.38;47.98;99268.69;2081028;28;19974;-49
2022/04/11 00:02:12;;;;;;;;;;;;;;;17.38;48.46;99266.81;2084382;28;20013;-49
2022/04/11 00:03:12;;;;;;;;;;;;;;;17.37;48.31;99265.13;2085365;28;20023;-50
2022/04/11 00:04:12;;;;;;;;;;;;;;;17.37;48.29;99267.84;2082649;28;19991;-51
2022/04/11 00:05:13;;;;;;;;;;;;;;;17.38;48.30;99263.25;2085906;28;19920;-51
2022/04/11 00:06:13;;;;;;;;;;;;;;;17.37;48.12;99256.94;2082759;28;19920;-49
2022/04/11 00:07:14;;;;;;;;;;;;;;;17.37;48.41;99256.94;2084915;28;19927;-52
2022/04/11 00:08:14;;;;;;;;;;;;;;;17.37;48.29;99251.50;2083051;28;19916;-49
2022/04/11 00:09:15;;;;;;;;;;;;;;;17.37;48.22;99256.94;2081165;28;20472;-50
2022/04/11 00:10:16;;;;;;;;;;;;;;;17.36;48.27;99255.22;2083903;28;19917;-51
2022/04/11 00:11:16;;;;;;;;;;;;;;;17.35;48.44;99248.94;2080968;28;20206;-51
2022/04/11 00:12:16;;;;;;;;;;;;;;;17.36;48.19;99249.78;2085944;28;20239;-49
2022/04/11 00:13:16;;;;;;;;;;;;;;;17.35;48.07;99248.09;2089825;28;19966;-48
2022/04/11 00:14:17;;;;;;;;;;;;;;;17.35;48.25;99246.19;2089786;28;19928;-49
2022/04/11 00:15:17;;;;;;;;;;;;;;;17.35;48.30;99243.47;2082000;28;19928;-49
2022/04/11 00:16:18;;;;;;;;;;;;;;;17.35;48.09;99239.91;2083112;28;19924;-52
2022/04/11 00:17:18;;;;;;;;;;;;;;;17.34;48.45;99241.78;2078697;28;19920;-51
2022/04/11 00:18:19;;;;;;;;;;;;;;;17.34;48.36;99233.59;2093714;27;20174;-51
2022/04/11 00:19:19;;;;;;;;;;;;;;;17.33;48.47;99229.16;2092318;28;21053;-51
2022/04/11 00:20:19;;;;;;;;;;;;;;;17.34;48.38;99224.56;2084329;28;19998;-50
2022/04/11 00:21:19;;;;;;;;;;;;;;;17.33;48.29;99222.88;2080812;28;20742;-51
2022/04/11 00:22:20;;;;;;;;;;;;;;;17.31;48.18;99223.00;2084967;28;20236;-49
2022/04/11 00:23:20;;;;;;;;;;;;;;;17.33;48.18;99228.31;2082897;28;20062;-52
2022/04/11 00:24:21;;;;;;;;;;;;;;;17.32;48.41;99221.13;2086342;28;20263;-50
2022/04/11 00:25:21;;;;;;;;;;;;;;;17.33;48.30;99225.59;2079615;28;20290;-49
2022/04/11 00:26:22;;;;;;;;;;;;;;;17.31;48.48;99222.16;2084768;28;19913;-50
2022/04/11 00:27:22;;;;;;;;;;;;;;;17.32;48.42;99221.13;2081946;28;19920;-49
2022/04/11 00:28:22;;;;;;;;;;;;;;;17.33;48.40;99225.59;2082573;28;19912;-48
2022/04/11 00:29:23;;;;;;;;;;;;;;;17.33;48.44;99220.13;2082569;28;20364;-50
2022/04/11 00:30:23;;;;;;;;;;;;;;;17.32;48.44;99215.69;2083399;28;20208;-48
2022/04/11 00:31:23;;;;;;;;;;;;;;;17.32;48.50;99221.13;2085360;28;19921;-50
2022/04/11 00:32:24;;;;;;;;;;;;;;;17.33;48.62;99217.41;2083714;28;19926;-48
2022/04/11 00:33:24;;;;;;;;;;;;;;;17.34;48.24;99219.09;2083785;28;19928;-48
2022/04/11 00:34:24;;;;;;;;;;;;;;;17.32;48.23;99210.22;2079594;28;19963;-51
2022/04/11 00:35:25;;;;;;;;;;;;;;;17.32;48.30;99212.97;2095988;28;19943;-49
2022/04/11 00:36:25;;;;;;;;;;;;;;;17.34;48.35;99213.66;2100878;28;20811;-49
2022/04/11 00:37:25;;;;;;;;;;;;;;;17.34;48.25;99213.66;2082363;28;20346;-50
2022/04/11 00:38:25;;;;;;;;;;;;;;;17.35;48.15;99218.13;2084140;28;19924;-52
2022/04/11 00:39:26;;;;;;;;;;;;;;;17.35;48.35;99218.97;2085250;28;20420;-49
2022/04/11 00:40:26;;;;;;;;;;;;;;;17.36;48.26;99217.09;2080889;28;19925;-49
2022/04/11 00:41:26;;;;;;;;;;;;;;;17.36;48.31;99214.34;2085503;28;19927;-49
2022/04/11 00:42:27;;;;;;;;;;;;;;;17.35;48.33;99213.50;2077001;28;20351;-49
2022/04/11 00:43:31;;;;;;;;;;;;;;;17.36;48.40;99212.47;2081690;28;19967;-50
2022/04/11 00:44:32;;;;;;;;;;;;;;;17.36;48.27;99206.19;2090412;28;20038;-50
2022/04/11 00:45:32;;;;;;;;;;;;;;;17.36;48.49;99200.75;2099760;28;19945;-51
2022/04/11 00:46:32;;;;;;;;;;;;;;;17.37;48.57;99202.47;2084757;28;20688;-50
2022/04/11 00:47:33;;;;;;;;;;;;;;;17.36;48.46;99206.19;2077005;28;19920;-48
2022/04/11 00:48:34;;;;;;;;;;;;;;;17.37;48.60;99207.91;2084961;28;20510;-51
2022/04/11 00:49:34;;;;;;;;;;;;;;;17.37;48.62;99207.91;2078213;28;20031;-49
2022/04/11 00:50:34;;;;;;;;;;;;;;;17.36;48.56;99207.03;2080854;28;19920;-49
2022/04/11 00:51:35;;;;;;;;;;;;;;;17.37;48.34;99213.38;2080809;28;20301;-50
2022/04/11 00:52:48;;;;;;;;;;;;;;;17.35;48.61;99199.91;2084691;28;19973;-51
2022/04/11 00:53:49;;;;;;;;;;;;;;;17.35;48.56;99202.63;2084698;28;20695;-49
2022/04/11 00:54:50;;;;;;;;;;;;;;;17.35;48.68;99199.91;2081533;28;19920;-48
2022/04/11 00:55:50;;;;;;;;;;;;;;;17.36;48.66;99195.28;2081620;28;19973;-47
2022/04/11 00:56:53;;;;;;;;;;;;;;;17.36;48.59;99189.84;2077153;28;20053;-48
2022/04/11 00:57:54;;;;;;;;;;;;;;;17.35;48.61;99188.16;2081205;28;19923;-49
2022/04/11 00:58:54;;;;;;;;;;;;;;;17.35;48.53;99193.59;2082315;28;19955;-48
2022/04/11 00:59:55;;;;;;;;;;;;;;;17.35;48.56;99182.69;2084370;28;19973;-48
2022/04/11 01:00:55;;;;;;;;;;;;;;;17.35;48.53;99182.69;2081919;28;20134;-48
2022/04/11 01:01:55;;;;;;;;;;;;;;;17.34;48.49;99183.69;2084019;28;19912;-48
2022/04/11 01:02:55;;;;;;;;;;;;;;;17.34;48.46;99183.69;2083475;28;19928;-49
2022/04/11 01:03:56;;;;;;;;;;;;;;;17.33;48.54;99179.28;2084223;28;19927;-49
2022/04/11 01:04:57;;;;;;;;;;;;;;;17.35;48.60;99182.69;2082511;28;20266;-49
2022/04/11 01:05:57;;;;;;;;;;;;;;;17.35;48.74;99177.25;2083072;28;19923;-48
2022/04/11 01:06:58;;;;;;;;;;;;;;;17.34;48.54;99172.81;2084824;28;20346;-48
2022/04/11 01:08:05;;;;;;;;;;;;;;;17.33;48.49;99173.84;2084063;28;19966;-48
2022/04/11 01:09:05;;;;;;;;;;;;;;;17.33;48.67;99168.38;2098151;28;20565;-50
2022/04/11 01:10:06;;;;;;;;;;;;;;;17.33;48.85;99168.38;2086769;28;19973;-50
2022/04/11 01:11:06;;;;;;;;;;;;;;;17.33;48.78;99168.38;2085208;28;20530;-50
2022/04/11 01:12:07;;;;;;;;;;;;;;;17.32;48.56;99155.75;2084137;28;19925;-48
2022/04/11 01:13:07;;;;;;;;;;;;;;;17.30;48.79;99158.66;2081939;28;20804;-49
2022/04/11 01:14:07;;;;;;;;;;;;;;;17.31;48.79;99163.09;2082766;28;20229;-48
2022/04/11 01:15:08;;;;;;;;;;;;;;;17.32;48.90;99161.22;2082304;28;19928;-48
2022/04/11 01:16:08;;;;;;;;;;;;;;;17.33;48.99;99157.50;2080855;28;20354;-49
2022/04/11 01:17:10;;;;;;;;;;;;;;;17.31;48.68;99157.63;2080926;28;19924;-49
2022/04/11 01:18:10;;;;;;;;;;;;;;;17.31;48.95;99160.34;2082325;28;20383;-48
2022/04/11 01:19:10;;;;;;;;;;;;;;;17.30;48.85;99153.22;2081929;28;20334;-47
2022/04/11 01:20:12;;;;;;;;;;;;;;;17.30;48.67;99157.81;2079075;28;19935;-48
2022/04/11 01:21:13;;;;;;;;;;;;;;;17.30;48.64;99157.81;2080161;28;20406;-48
2022/04/11 01:22:13;;;;;;;;;;;;;;;17.30;48.69;99152.38;2083984;28;19925;-49
2022/04/11 01:23:14;;;;;;;;;;;;;;;17.31;48.67;99154.06;2083104;28;20010;-48
2022/04/11 01:24:18;;;;;;;;;;;;;;;17.30;48.89;99160.53;2082734;28;19995;-48
2022/04/11 01:25:19;;;;;;;;;;;;;;;17.30;48.98;99147.78;2082307;28;19986;-51
2022/04/11 01:26:22;;;;;;;;;;;;;;;17.30;49.07;99142.31;2082998;28;19927;-52
2022/04/11 01:27:22;;;;;;;;;;;;;;;17.29;48.79;99146.03;2082755;28;20354;-49
2022/04/11 01:28:23;;;;;;;;;;;;;;;17.29;48.75;99146.03;2079326;28;19921;-49
2022/04/11 01:29:24;;;;;;;;;;;;;;;17.29;48.75;99145.19;2083239;28;20637;-50
2022/04/11 01:30:24;;;;;;;;;;;;;;;17.30;49.02;99142.31;2080503;28;19927;-49
2022/04/11 01:31:25;;;;;;;;;;;;;;;17.30;48.98;99141.47;2080687;28;20276;-50
2022/04/11 01:32:25;;;;;;;;;;;;;;;17.31;48.73;99148.63;2081025;28;19920;-50
2022/04/11 01:33:27;;;;;;;;;;;;;;;17.30;48.89;99147.78;2082481;28;19920;-48
2022/04/11 01:34:27;;;;;;;;;;;;;;;17.30;48.80;99133.31;2083097;28;20357;-48
2022/04/11 01:35:27;;;;;;;;;;;;;;;17.30;48.97;99130.56;2083338;28;19931;-50
2022/04/11 01:36:28;;;;;;;;;;;;;;;17.29;48.79;99134.28;2082268;28;19920;-49
2022/04/11 01:37:28;;;;;;;;;;;;;;;17.29;49.00;99128.84;2081724;28;19925;-50
2022/04/11 01:38:28;;;;;;;;;;;;;;;17.29;48.97;99128.84;2080924;28;20358;-51
2022/04/11 01:39:29;;;;;;;;;;;;;;;17.29;48.83;99135.16;2079166;28;19955;-49
2022/04/11 01:40:29;;;;;;;;;;;;;;;17.29;48.91;99128.84;2081407;28;19924;-48
2022/04/11 01:41:29;;;;;;;;;;;;;;;17.27;48.91;99130.88;2078404;28;20243;-50
2022/04/11 01:42:29;;;;;;;;;;;;;;;17.28;48.97;99132.59;2080984;28;19920;-49
2022/04/11 01:43:30;;;;;;;;;;;;;;;17.28;49.02;99132.59;2081105;28;20371;-50
2022/04/11 01:44:30;;;;;;;;;;;;;;;17.27;48.87;99133.59;2083179;28;19924;-50
2022/04/11 01:45:30;;;;;;;;;;;;;;;17.28;48.99;99140.78;2080597;28;19964;-47
2022/04/11 01:46:31;;;;;;;;;;;;;;;17.29;49.01;99134.28;2082196;28;20444;-48
2022/04/11 01:47:31;;;;;;;;;;;;;;;17.27;48.98;99131.75;2078867;28;19920;-51
2022/04/11 01:48:31;;;;;;;;;;;;;;;17.27;49.17;99134.47;2077739;28;20400;-48
2022/04/11 01:49:32;;;;;;;;;;;;;;;17.28;49.30;99127.16;2082753;28;19921;-48
2022/04/11 01:50:32;;;;;;;;;;;;;;;17.27;49.23;99125.44;2083684;28;20474;-49
2022/04/11 01:51:32;;;;;;;;;;;;;;;17.27;49.22;99122.72;2079507;28;20010;-49
2022/04/11 01:52:33;;;;;;;;;;;;;;;17.26;49.27;99130.03;2084595;28;20251;-51
2022/04/11 01:53:34;;;;;;;;;;;;;;;17.27;49.17;99125.44;2080993;28;19924;-50
2022/04/11 01:54:34;;;;;;;;;;;;;;;17.27;49.18;99125.44;2084136;28;19963;-50
2022/04/11 01:55:35;;;;;;;;;;;;;;;17.27;49.06;99125.44;2083828;28;20231;-50
2022/04/11 01:56:35;;;;;;;;;;;;;;;17.26;49.11;99131.91;2080382;28;19916;-48
2022/04/11 01:57:36;;;;;;;;;;;;;;;17.27;49.08;99130.88;2083799;28;20343;-49
2022/04/11 01:58:36;;;;;;;;;;;;;;;17.27;49.10;99130.88;2079761;28;20188;-48
2022/04/11 01:59:37;;;;;;;;;;;;;;;17.27;49.14;99136.31;2082067;28;19955;-51
2022/04/11 02:00:38;;;;;;;;;;;;;;;17.27;49.17;99141.78;2083093;28;19928;-49
2022/04/11 02:01:38;;;;;;;;;;;;;;;17.27;49.14;99130.88;2082007;28;19935;-50
2022/04/11 02:02:38;;;;;;;;;;;;;;;17.26;49.14;99123.72;2081093;28;20196;-48
2022/04/11 02:03:39;;;;;;;;;;;;;;;17.27;49.25;99130.88;2081078;28;19921;-50
2022/04/11 02:04:39;;;;;;;;;;;;;;;17.27;49.25;99125.44;2081978;28;20428;-48
2022/04/11 02:05:40;;;;;;;;;;;;;;;17.26;49.34;99123.72;2077312;28;20379;-48
2022/04/11 02:06:40;;;;;;;;;;;;;;;17.25;49.35;99130.22;2082038;28;19946;-48
2022/04/11 02:07:40;;;;;;;;;;;;;;;17.26;49.41;99135.47;2077093;28;19928;-48
2022/04/11 02:08:41;;;;;;;;;;;;;;;17.26;49.19;99135.47;2080450;28;19920;-48
2022/04/11 02:09:41;;;;;;;;;;;;;;;17.25;49.29;99131.06;2082445;28;20255;-47
2022/04/11 02:10:41;;;;;;;;;;;;;;;17.26;49.44;99134.63;2081154;28;19924;-47
2022/04/11 02:11:42;;;;;;;;;;;;;;;17.27;49.42;99136.31;2083659;28;19920;-48
2022/04/11 02:12:42;;;;;;;;;;;;;;;17.24;49.42;99129.34;2082615;28;19924;-49
2022/04/11 02:13:42;;;;;;;;;;;;;;;17.26;49.49;99145.53;2083899;28;20306;-48
2022/04/11 02:14:43;;;;;;;;;;;;;;;17.26;49.39;99140.06;2082130;28;19924;-48
2022/04/11 02:15:43;;;;;;;;;;;;;;;17.26;49.57;99132.75;2083900;28;20026;-49
2022/04/11 02:16:43;;;;;;;;;;;;;;;17.26;49.66;99140.06;2082242;28;19987;-48
2022/04/11 02:17:44;;;;;;;;;;;;;;;17.26;49.58;99140.94;2082301;28;19942;-49
2022/04/11 02:18:44;;;;;;;;;;;;;;;17.27;49.52;99130.88;2079614;28;20018;-52
2022/04/11 02:19:44;;;;;;;;;;;;;;;17.29;49.64;99134.28;2083848;28;19932;-50
2022/04/11 02:20:45;;;;;;;;;;;;;;;17.29;49.60;99128.84;2083363;28;19986;-50
2022/04/11 02:21:45;;;;;;;;;;;;;;;17.30;49.65;99130.56;2087305;28;19920;-49
2022/04/11 02:22:48;;;;;;;;;;;;;;;17.30;49.66;99133.31;2080551;28;19943;-49
2022/04/11 02:23:49;;;;;;;;;;;;;;;17.31;49.70;99135.00;2074286;28;19923;-51
2022/04/11 02:24:49;;;;;;;;;;;;;;;17.30;49.62;99136.03;2092598;28;20480;-51
2022/04/11 02:25:50;;;;;;;;;;;;;;;17.31;49.74;99138.56;2098104;28;19920;-49
2022/04/11 02:26:50;;;;;;;;;;;;;;;17.31;49.47;99135.00;2085868;28;19924;-48
2022/04/11 02:27:51;;;;;;;;;;;;;;;17.30;49.59;99130.56;2082300;28;20305;-48
2022/04/11 02:28:52;;;;;;;;;;;;;;;17.31;49.52;99124.09;2083507;28;19927;-49
2022/04/11 02:29:52;;;;;;;;;;;;;;;17.32;49.47;99117.63;2083422;28;19921;-48
2022/04/11 02:30:52;;;;;;;;;;;;;;;17.31;49.56;99130.41;2081591;28;20277;-49
2022/04/11 02:31:53;;;;;;;;;;;;;;;17.30;49.53;99120.53;2081509;28;19917;-48
2022/04/11 02:32:53;;;;;;;;;;;;;;;17.30;49.62;99128.69;2084518;28;19924;-51
2022/04/11 02:33:54;;;;;;;;;;;;;;;17.30;49.53;99131.44;2081608;28;19913;-48
2022/04/11 02:34:54;;;;;;;;;;;;;;;17.30;49.59;99130.56;2082798;28;20079;-51
2022/04/11 02:35:54;;;;;;;;;;;;;;;17.29;49.72;99131.56;2083410;28;19989;-50
2022/04/11 02:36:54;;;;;;;;;;;;;;;17.29;49.66;99134.28;2082374;28;20430;-50
2022/04/11 02:37:55;;;;;;;;;;;;;;;17.29;49.62;99135.16;2084441;28;19963;-49
2022/04/11 02:38:55;;;;;;;;;;;;;;;17.28;49.85;99128.00;2081918;28;19913;-48
2022/04/11 02:39:55;;;;;;;;;;;;;;;17.29;49.84;99134.28;2082440;28;19913;-50
2022/04/11 02:40:56;;;;;;;;;;;;;;;17.28;49.93;99135.31;2080348;28;19928;-49
2022/04/11 02:41:56;;;;;;;;;;;;;;;17.27;49.76;99137.19;2082072;28;19920;-52
2022/04/11 02:42:56;;;;;;;;;;;;;;;17.26;49.96;99140.06;2080808;28;20081;-50
2022/04/11 02:43:57;;;;;;;;;;;;;;;17.26;49.79;99134.63;2082352;28;19931;-49
2022/04/11 02:44:57;;;;;;;;;;;;;;;17.25;50.06;99138.38;2081363;28;19932;-51
2022/04/11 02:45:57;;;;;;;;;;;;;;;17.26;49.73;99135.47;2079185;28;20228;-49
2022/04/11 02:46:58;;;;;;;;;;;;;;;17.26;50.13;99142.81;2085447;28;19931;-52
2022/04/11 02:47:58;;;;;;;;;;;;;;;17.26;49.95;99140.06;2080110;28;20358;-51
2022/04/11 02:48:58;;;;;;;;;;;;;;;17.25;50.01;99141.09;2082292;28;20749;-52
2022/04/11 02:49:58;;;;;;;;;;;;;;;17.25;50.01;99139.22;2082197;28;20005;-48
2022/04/11 02:50:59;;;;;;;;;;;;;;;17.24;49.79;99132.06;2078936;28;19935;-50
2022/04/11 02:51:59;;;;;;;;;;;;;;;17.25;50.04;99133.78;2082253;28;19950;-53
2022/04/11 02:53:00;;;;;;;;;;;;;;;17.25;50.10;99127.50;2081152;28;19984;-50
2022/04/11 02:54:07;;;;;;;;;;;;;;;17.25;49.91;99128.34;2078418;28;19920;-48
2022/04/11 02:55:08;;;;;;;;;;;;;;;17.25;50.11;99122.88;2077495;28;19927;-48
2022/04/11 02:56:08;;;;;;;;;;;;;;;17.25;49.95;99128.34;2078939;28;19920;-48
2022/04/11 02:57:08;;;;;;;;;;;;;;;17.25;50.11;99116.59;2075822;28;19921;-48
2022/04/11 02:58:09;;;;;;;;;;;;;;;17.25;49.99;99122.03;2088473;28;19920;-48
2022/04/11 02:59:09;;;;;;;;;;;;;;;17.26;50.04;99126.47;2077703;28;20390;-48
2022/04/11 03:00:12;;;;;;;;;;;;;;;17.25;49.92;99122.88;2082402;28;19931;-48
2022/04/11 03:01:12;;;;;;;;;;;;;;;17.26;50.08;99121.84;2080326;28;20015;-49
2022/04/11 03:02:12;;;;;;;;;;;;;;;17.26;50.00;99124.59;2082448;28;19917;-51
2022/04/11 03:03:13;;;;;;;;;;;;;;;17.25;50.14;99122.88;2077702;28;19920;-48
2022/04/11 03:04:13;;;;;;;;;;;;;;;17.26;50.12;99126.47;2079729;28;20196;-50
2022/04/11 03:05:13;;;;;;;;;;;;;;;17.26;50.01;99118.28;2083092;28;20236;-48
2022/04/11 03:06:13;;;;;;;;;;;;;;;17.26;50.22;99121.00;2078671;28;20338;-50
2022/04/11 03:07:14;;;;;;;;;;;;;;;17.25;50.11;99116.59;2081687;28;19920;-51
2022/04/11 03:08:14;;;;;;;;;;;;;;;17.26;50.32;99112.84;2079776;28;19920;-50
2022/04/11 03:09:14;;;;;;;;;;;;;;;17.24;50.13;99114.88;2081316;28;20652;-50
2022/04/11 03:10:15;;;;;;;;;;;;;;;17.25;50.11;99122.03;2078641;28;19948;-50
2022/04/11 03:11:15;;;;;;;;;;;;;;;17.24;50.31;99109.41;2081314;28;19959;-49
2022/04/11 03:12:15;;;;;;;;;;;;;;;17.24;50.15;99110.25;2077439;28;20206;-48
2022/04/11 03:13:16;;;;;;;;;;;;;;;17.23;50.19;99102.28;2078386;28;20114;-50
2022/04/11 03:14:16;;;;;;;;;;;;;;;17.23;50.30;99108.56;2091209;28;23979;-48
2022/04/11 03:15:17;;;;;;;;;;;;;;;17.23;50.19;99103.13;2099184;28;20550;-49
2022/04/11 03:16:17;;;;;;;;;;;;;;;17.23;50.15;99102.28;2080576;28;19927;-52
2022/04/11 03:17:17;;;;;;;;;;;;;;;17.23;50.18;99105.00;2083545;28;19952;-51
2022/04/11 03:18:18;;;;;;;;;;;;;;;17.23;50.24;99105.84;2080149;28;20019;-48
2022/04/11 03:19:20;;;;;;;;;;;;;;;17.23;50.19;99102.28;2084488;28;19969;-52
2022/04/11 03:20:20;;;;;;;;;;;;;;;17.23;50.28;99110.44;2080245;28;20549;-48
2022/04/11 03:21:20;;;;;;;;;;;;;;;17.22;50.19;99100.56;2080266;28;19924;-48
2022/04/11 03:22:20;;;;;;;;;;;;;;;17.22;50.22;99106.88;2084137;28;19979;-49
2022/04/11 03:23:21;;;;;;;;;;;;;;;17.21;50.26;99104.31;2080982;28;19920;-48
2022/04/11 03:24:21;;;;;;;;;;;;;;;17.23;50.54;99102.28;2083280;28;20145;-50
2022/04/11 03:25:21;;;;;;;;;;;;;;;17.23;50.35;99102.28;2082446;28;20177;-49
2022/04/11 03:26:22;;;;;;;;;;;;;;;17.22;50.17;99098.72;2080438;28;19924;-49
2022/04/11 03:27:22;;;;;;;;;;;;;;;17.23;50.49;99103.13;2080870;28;19954;-51
2022/04/11 03:28:22;;;;;;;;;;;;;;;17.22;50.50;99095.97;2081947;28;19921;-48
2022/04/11 03:29:22;;;;;;;;;;;;;;;17.23;50.40;99107.72;2083248;28;19912;-47
2022/04/11 03:30:23;;;;;;;;;;;;;;;17.22;50.47;99098.72;2082683;28;20341;-48
2022/04/11 03:31:23;;;;;;;;;;;;;;;17.21;50.18;99105.16;2083659;28;19927;-48
2022/04/11 03:32:23;;;;;;;;;;;;;;;17.22;50.19;99095.09;2084832;28;19927;-48
2022/04/11 03:33:23;;;;;;;;;;;;;;;17.22;50.50;99100.56;2082020;28;20496;-49
2022/04/11 03:34:24;;;;;;;;;;;;;;;17.22;50.31;99097.81;2085867;28;19920;-48
2022/04/11 03:35:24;;;;;;;;;;;;;;;17.21;50.49;99110.59;2077763;28;19921;-49
2022/04/11 03:36:24;;;;;;;;;;;;;;;17.21;50.40;99109.75;2082694;28;19920;-47
2022/04/11 03:37:26;;;;;;;;;;;;;;;17.21;50.57;99104.31;2079933;28;19921;-48
2022/04/11 03:38:26;;;;;;;;;;;;;;;17.22;50.37;99106.00;2082335;28;19972;-50
2022/04/11 03:39:27;;;;;;;;;;;;;;;17.21;50.59;99104.31;2083296;28;19947;-50
2022/04/11 03:40:27;;;;;;;;;;;;;;;17.20;50.46;99098.00;2074280;28;19986;-48
2022/04/11 03:41:27;;;;;;;;;;;;;;;17.21;50.71;99098.84;2081217;28;20200;-51
2022/04/11 03:42:28;;;;;;;;;;;;;;;17.21;50.56;99104.31;2080610;28;20206;-50
2022/04/11 03:43:28;;;;;;;;;;;;;;;17.20;50.67;99102.56;2081225;28;19960;-51
2022/04/11 03:44:29;;;;;;;;;;;;;;;17.20;50.60;99102.56;2080536;28;19921;-51
2022/04/11 03:45:29;;;;;;;;;;;;;;;17.19;50.59;99101.72;2081987;28;19921;-51
2022/04/11 03:46:30;;;;;;;;;;;;;;;17.19;50.66;99106.31;2080893;28;19917;-51
2022/04/11 03:47:30;;;;;;;;;;;;;;;17.20;50.59;99108.03;2084028;28;20246;-49
2022/04/11 03:48:31;;;;;;;;;;;;;;;17.20;50.58;99108.03;2082025;28;19931;-52
2022/04/11 03:49:31;;;;;;;;;;;;;;;17.19;50.64;99109.06;2084694;28;20002;-50
2022/04/11 03:50:31;;;;;;;;;;;;;;;17.18;50.75;99110.09;2080047;28;20638;-50
2022/04/11 03:51:32;;;;;;;;;;;;;;;17.20;50.34;99108.03;2083720;28;19964;-50
2022/04/11 03:52:33;;;;;;;;;;;;;;;17.20;50.52;99114.34;2084152;28;19927;-51
2022/04/11 03:53:33;;;;;;;;;;;;;;;17.20;50.74;99108.91;2081710;28;19924;-50
2022/04/11 03:54:33;;;;;;;;;;;;;;;17.21;50.52;99112.47;2083938;28;19971;-50
2022/04/11 03:55:33;;;;;;;;;;;;;;;17.23;50.61;99113.16;2081161;28;20141;-51
2022/04/11 03:56:34;;;;;;;;;;;;;;;17.23;50.52;99107.72;2085172;28;19922;-48
2022/04/11 03:57:34;;;;;;;;;;;;;;;17.24;50.63;99104.81;2079077;28;19927;-51
2022/04/11 03:58:34;;;;;;;;;;;;;;;17.24;50.67;99109.41;2082565;28;20035;-48
2022/04/11 03:59:35;;;;;;;;;;;;;;;17.24;50.77;99115.72;2081198;28;20007;-49
2022/04/11 04:00:35;;;;;;;;;;;;;;;17.25;50.78;99109.28;2083682;28;19920;-51
2022/04/11 04:01:35;;;;;;;;;;;;;;;17.26;50.73;99115.56;2082713;28;19927;-51
2022/04/11 04:02:36;;;;;;;;;;;;;;;17.26;50.49;99115.56;2082059;28;19909;-48
2022/04/11 04:03:36;;;;;;;;;;;;;;;17.26;50.67;99110.97;2083476;28;20305;-48
2022/04/11 04:04:36;;;;;;;;;;;;;;;17.26;50.49;99118.28;2078407;28;19924;-50
2022/04/11 04:05:43;;;;;;;;;;;;;;;17.27;50.51;99114.53;2078209;28;20008;-48
2022/04/11 04:06:43;;;;;;;;;;;;;;;17.26;50.78;99123.72;2077629;28;20313;-48
2022/04/11 04:07:44;;;;;;;;;;;;;;;17.26;50.58;99124.59;2079788;28;20185;-48
2022/04/11 04:08:44;;;;;;;;;;;;;;;17.25;50.80;99122.88;2084668;28;21213;-49
2022/04/11 04:09:44;;;;;;;;;;;;;;;17.24;50.70;99123.03;2083541;28;20501;-48
2022/04/11 04:10:45;;;;;;;;;;;;;;;17.24;50.95;99121.16;2082050;28;19919;-48
2022/04/11 04:11:45;;;;;;;;;;;;;;;17.25;50.69;99127.50;2084704;28;19919;-48
2022/04/11 04:12:46;;;;;;;;;;;;;;;17.23;50.62;99122.19;2080654;28;19934;-48
2022/04/11 04:13:46;;;;;;;;;;;;;;;17.24;50.81;99123.03;2084427;28;19908;-47
2022/04/11 04:14:47;;;;;;;;;;;;;;;17.24;50.79;99123.03;2095384;28;20379;-50
2022/04/11 04:15:47;;;;;;;;;;;;;;;17.23;51.00;99119.47;2090837;28;19920;-49
2022/04/11 04:16:49;;;;;;;;;;;;;;;17.23;50.90;99121.34;2077679;28;19920;-48
2022/04/11 04:17:51;;;;;;;;;;;;;;;17.23;50.90;99121.34;2077629;28;19947;-48
2022/04/11 04:18:51;;;;;;;;;;;;;;;17.23;50.81;99124.06;2080290;28;19940;-48
2022/04/11 04:19:52;;;;;;;;;;;;;;;17.22;50.88;99122.34;2082669;28;20471;-50
2022/04/11 04:20:52;;;;;;;;;;;;;;;17.23;51.05;99118.63;2096325;28;20201;-48
2022/04/11 04:21:53;;;;;;;;;;;;;;;17.23;50.79;99121.34;2098210;27;19941;-51
2022/04/11 04:22:53;;;;;;;;;;;;;;;17.22;50.90;99122.34;2077148;28;20307;-50
2022/04/11 04:23:53;;;;;;;;;;;;;;;17.22;50.87;99122.34;2081697;28;19921;-52
2022/04/11 04:24:55;;;;;;;;;;;;;;;17.23;50.78;99115.91;2079807;28;20282;-49
2022/04/11 04:25:56;;;;;;;;;;;;;;;17.23;50.96;99121.34;2080228;28;19931;-50
2022/04/11 04:26:56;;;;;;;;;;;;;;;17.23;50.97;99118.63;2099021;27;19937;-48
2022/04/11 04:27:57;;;;;;;;;;;;;;;17.24;50.98;99120.31;2097029;28;19920;-50
2022/04/11 04:28:57;;;;;;;;;;;;;;;17.22;51.00;99123.22;2079979;28;20175;-50
2022/04/11 04:29:57;;;;;;;;;;;;;;;17.21;50.88;99121.50;2082023;28;20227;-49
2022/04/11 04:30:58;;;;;;;;;;;;;;;17.22;51.06;99119.63;2087186;28;19924;-51
2022/04/11 04:31:58;;;;;;;;;;;;;;;17.22;51.07;99119.63;2080602;28;20025;-49
2022/04/11 04:32:58;;;;;;;;;;;;;;;17.19;51.01;99109.06;2085371;28;19928;-51
2022/04/11 04:33:59;;;;;;;;;;;;;;;17.20;51.10;99113.47;2081735;28;19987;-53
2022/04/11 04:35:00;;;;;;;;;;;;;;;17.20;51.14;99113.47;2083023;28;20488;-49
2022/04/11 04:36:00;;;;;;;;;;;;;;;17.21;51.07;99112.47;2081275;28;19924;-49
2022/04/11 04:37:00;;;;;;;;;;;;;;;17.20;51.19;99110.75;2078934;28;20157;-52
2022/04/11 04:38:01;;;;;;;;;;;;;;;17.19;50.99;99106.31;2082476;28;19953;-49
2022/04/11 04:39:02;;;;;;;;;;;;;;;17.19;51.10;99111.78;2077806;28;20007;-49
2022/04/11 04:40:03;;;;;;;;;;;;;;;17.19;51.21;99114.50;2078595;28;19917;-48
2022/04/11 04:41:03;;;;;;;;;;;;;;;17.19;51.28;99111.78;2078412;28;20041;-51
2022/04/11 04:42:04;;;;;;;;;;;;;;;17.19;51.07;99109.91;2078971;28;19917;-50
2022/04/11 04:43:06;;;;;;;;;;;;;;;17.19;51.19;99107.19;2081015;28;20657;-49
2022/04/11 04:44:06;;;;;;;;;;;;;;;17.19;51.19;99111.78;2081981;28;19920;-49
2022/04/11 04:45:06;;;;;;;;;;;;;;;17.19;50.96;99109.06;2080939;28;19960;-48
2022/04/11 04:46:07;;;;;;;;;;;;;;;17.19;51.11;99109.91;2079949;28;19920;-50
2022/04/11 04:47:10;;;;;;;;;;;;;;;17.19;51.29;99109.06;2080667;28;19916;-48
2022/04/11 04:48:10;;;;;;;;;;;;;;;17.19;51.22;99117.22;2084500;28;19917;-51
2022/04/11 04:49:10;;;;;;;;;;;;;;;17.19;51.07;99114.50;2079894;28;19920;-48
2022/04/11 04:50:11;;;;;;;;;;;;;;;17.18;51.30;99110.09;2099243;27;20027;-48
2022/04/11 04:51:11;;;;;;;;;;;;;;;17.18;51.19;99110.09;2091578;28;19920;-50
2022/04/11 04:52:12;;;;;;;;;;;;;;;17.19;51.13;99111.78;2083094;28;20023;-50
2022/04/11 04:53:12;;;;;;;;;;;;;;;17.20;51.15;99105.31;2079291;28;20831;-49
2022/04/11 04:54:13;;;;;;;;;;;;;;;17.19;51.15;99106.31;2079830;28;19924;-50
2022/04/11 04:55:13;;;;;;;;;;;;;;;17.20;51.10;99108.03;2080677;28;20846;-51
2022/04/11 04:56:13;;;;;;;;;;;;;;;17.20;51.17;99113.47;2077442;28;19924;-49
2022/04/11 04:57:13;;;;;;;;;;;;;;;17.20;51.17;99105.31;2079845;28;20144;-50
2022/04/11 04:58:14;;;;;;;;;;;;;;;17.17;51.15;99100.19;2081478;28;19970;-48
2022/04/11 04:59:14;;;;;;;;;;;;;;;17.20;51.23;99110.75;2079016;28;20331;-48
2022/04/11 05:00:14;;;;;;;;;;;;;;;17.20;51.08;99105.31;2081028;28;19931;-51
2022/04/11 05:01:15;;;;;;;;;;;;;;;17.19;51.18;99111.78;2082507;28;19920;-49
2022/04/11 05:02:15;;;;;;;;;;;;;;;17.19;50.91;99111.78;2078646;28;19927;-48
2022/04/11 05:03:15;;;;;;;;;;;;;;;17.19;51.12;99111.78;2084540;28;19935;-49
2022/04/11 05:04:16;;;;;;;;;;;;;;;17.18;51.08;99115.53;2079112;28;19925;-49
2022/04/11 05:05:16;;;;;;;;;;;;;;;17.18;51.35;99107.34;2085485;28;19925;-49
2022/04/11 05:06:17;;;;;;;;;;;;;;;17.18;51.42;99105.47;2094996;28;20109;-48
2022/04/11 05:07:17;;;;;;;;;;;;;;;17.17;51.27;99102.91;2098609;28;19923;-48
2022/04/11 05:08:17;;;;;;;;;;;;;;;17.17;51.29;99105.63;2080814;28;20352;-49
2022/04/11 05:09:18;;;;;;;;;;;;;;;17.16;51.21;99107.50;2079884;28;19917;-50
2022/04/11 05:10:18;;;;;;;;;;;;;;;17.17;51.14;99097.47;2082099;28;19920;-49
2022/04/11 05:11:20;;;;;;;;;;;;;;;17.16;51.28;99095.75;2082203;28;21296;-50
2022/04/11 05:12:20;;;;;;;;;;;;;;;17.16;51.47;99103.94;2079893;28;20010;-51
2022/04/11 05:13:22;;;;;;;;;;;;;;;17.14;51.49;99096.75;2082817;28;20409;-48
2022/04/11 05:14:22;;;;;;;;;;;;;;;17.17;51.44;99097.47;2078234;28;20381;-49
2022/04/11 05:15:23;;;;;;;;;;;;;;;17.16;51.44;99096.63;2082721;28;19920;-48